sensor_id;sensor_type;location;lat;lon;timestamp;P1;durP1;ratioP1;P2;durP2;ratioP2
74634;SDS011;63140;56.306;43.984;2022-11-15T00:01:54;4.75;;;2.50;;
74634;SDS011;63140;56.306;43.984;2022-11-15T00:04:38;5.18;;;2.05;;
74634;SDS011;63140;56.306;43.984;2022-11-15T00:07:22;4.00;;;2.25;;
74634;SDS011;63140;56.306;43.984;2022-11-15T00:10:06;6.13;;;3.10;;
74634;SDS011;63140;56.306;43.984;2022-11-15T00:12:51;6.93;;;2.20;;
74634;SDS011;63140;56.306;43.984;2022-11-15T00:15:36;3.88;;;2.20;;
74634;SDS011;63140;56.306;43.984;2022-11-15T00:18:24;3.60;;;2.20;;
74634;SDS011;63140;56.306;43.984;2022-11-15T00:21:12;3.55;;;2.20;;
74634;SDS011;63140;56.306;43.984;2022-11-15T00:23:58;5.63;;;1.80;;
74634;SDS011;63140;56.306;43.984;2022-11-15T00:26:42;4.00;;;1.90;;
74634;SDS011;63140;56.306;43.984;2022-11-15T00:29:26;4.25;;;2.17;;
74634;SDS011;63140;56.306;43.984;2022-11-15T00:32:11;2.60;;;1.40;;
74634;SDS011;63140;56.306;43.984;2022-11-15T00:34:56;3.25;;;2.10;;
74634;SDS011;63140;56.306;43.984;2022-11-15T00:37:40;3.88;;;1.85;;
74634;SDS011;63140;56.306;43.984;2022-11-15T00:40:24;3.07;;;1.83;;
74634;SDS011;63140;56.306;43.984;2022-11-15T00:43:09;3.67;;;2.22;;
74634;SDS011;63140;56.306;43.984;2022-11-15T00:45:53;4.25;;;2.10;;
74634;SDS011;63140;56.306;43.984;2022-11-15T00:48:38;3.65;;;2.17;;
74634;SDS011;63140;56.306;43.984;2022-11-15T00:51:22;6.35;;;1.77;;
74634;SDS011;63140;56.306;43.984;2022-11-15T00:54:06;3.37;;;1.87;;
74634;SDS011;63140;56.306;43.984;2022-11-15T00:56:50;6.70;;;2.08;;
74634;SDS011;63140;56.306;43.984;2022-11-15T00:59:35;6.10;;;2.05;;
74634;SDS011;63140;56.306;43.984;2022-11-15T01:02:19;3.42;;;1.90;;
74634;SDS011;63140;56.306;43.984;2022-11-15T01:05:03;8.55;;;2.10;;
74634;SDS011;63140;56.306;43.984;2022-11-15T01:07:54;4.60;;;1.80;;
74634;SDS011;63140;56.306;43.984;2022-11-15T01:10:39;4.10;;;1.98;;
74634;SDS011;63140;56.306;43.984;2022-11-15T01:13:24;3.08;;;1.70;;
74634;SDS011;63140;56.306;43.984;2022-11-15T01:16:10;6.05;;;1.90;;
74634;SDS011;63140;56.306;43.984;2022-11-15T01:18:56;3.90;;;1.90;;
74634;SDS011;63140;56.306;43.984;2022-11-15T01:21:41;3.60;;;2.03;;
74634;SDS011;63140;56.306;43.984;2022-11-15T01:24:25;4.47;;;1.90;;
74634;SDS011;63140;56.306;43.984;2022-11-15T01:27:09;3.40;;;1.80;;
74634;SDS011;63140;56.306;43.984;2022-11-15T01:29:54;4.88;;;2.05;;
74634;SDS011;63140;56.306;43.984;2022-11-15T01:32:38;3.40;;;1.90;;
74634;SDS011;63140;56.306;43.984;2022-11-15T01:35:23;3.27;;;2.00;;
74634;SDS011;63140;56.306;43.984;2022-11-15T01:38:07;4.05;;;1.92;;
74634;SDS011;63140;56.306;43.984;2022-11-15T01:40:52;5.82;;;2.15;;
74634;SDS011;63140;56.306;43.984;2022-11-15T01:43:36;8.80;;;2.50;;
74634;SDS011;63140;56.306;43.984;2022-11-15T01:49:12;4.00;;;2.00;;
74634;SDS011;63140;56.306;43.984;2022-11-15T01:52:01;6.63;;;2.10;;
74634;SDS011;63140;56.306;43.984;2022-11-15T01:54:48;4.03;;;2.00;;
74634;SDS011;63140;56.306;43.984;2022-11-15T01:57:38;3.67;;;2.08;;
74634;SDS011;63140;56.306;43.984;2022-11-15T02:00:25;3.13;;;1.90;;
74634;SDS011;63140;56.306;43.984;2022-11-15T02:03:09;4.83;;;2.20;;
74634;SDS011;63140;56.306;43.984;2022-11-15T02:05:54;3.13;;;2.00;;
74634;SDS011;63140;56.306;43.984;2022-11-15T02:08:39;3.30;;;1.95;;
74634;SDS011;63140;56.306;43.984;2022-11-15T02:11:23;5.50;;;2.45;;
74634;SDS011;63140;56.306;43.984;2022-11-15T02:14:08;5.57;;;2.20;;
74634;SDS011;63140;56.306;43.984;2022-11-15T02:20:14;3.22;;;1.77;;
74634;SDS011;63140;56.306;43.984;2022-11-15T02:26:38;5.30;;;1.98;;
74634;SDS011;63140;56.306;43.984;2022-11-15T02:32:24;4.30;;;2.20;;
74634;SDS011;63140;56.306;43.984;2022-11-15T02:35:41;4.28;;;2.15;;
74634;SDS011;63140;56.306;43.984;2022-11-15T02:41:31;8.10;;;2.47;;
74634;SDS011;63140;56.306;43.984;2022-11-15T02:44:31;7.78;;;2.83;;
74634;SDS011;63140;56.306;43.984;2022-11-15T02:47:20;5.03;;;2.80;;
74634;SDS011;63140;56.306;43.984;2022-11-15T02:50:10;6.18;;;2.00;;
74634;SDS011;63140;56.306;43.984;2022-11-15T02:52:55;5.50;;;2.40;;
74634;SDS011;63140;56.306;43.984;2022-11-15T02:55:44;5.80;;;2.40;;
74634;SDS011;63140;56.306;43.984;2022-11-15T03:02:06;6.30;;;2.43;;
74634;SDS011;63140;56.306;43.984;2022-11-15T03:11:08;6.82;;;2.30;;
74634;SDS011;63140;56.306;43.984;2022-11-15T03:16:47;6.27;;;2.33;;
74634;SDS011;63140;56.306;43.984;2022-11-15T03:19:55;8.70;;;2.10;;
74634;SDS011;63140;56.306;43.984;2022-11-15T03:22:43;5.45;;;1.92;;
74634;SDS011;63140;56.306;43.984;2022-11-15T03:25:29;9.77;;;2.45;;
74634;SDS011;63140;56.306;43.984;2022-11-15T03:28:19;5.50;;;2.33;;
74634;SDS011;63140;56.306;43.984;2022-11-15T03:31:13;9.43;;;2.83;;
74634;SDS011;63140;56.306;43.984;2022-11-15T03:37:19;8.07;;;2.40;;
74634;SDS011;63140;56.306;43.984;2022-11-15T03:40:06;6.22;;;1.98;;
74634;SDS011;63140;56.306;43.984;2022-11-15T03:43:01;5.07;;;2.25;;
74634;SDS011;63140;56.306;43.984;2022-11-15T03:46:16;3.50;;;2.10;;
74634;SDS011;63140;56.306;43.984;2022-11-15T03:49:27;5.13;;;2.03;;
74634;SDS011;63140;56.306;43.984;2022-11-15T03:52:17;4.38;;;2.10;;
74634;SDS011;63140;56.306;43.984;2022-11-15T03:55:03;12.65;;;2.25;;
74634;SDS011;63140;56.306;43.984;2022-11-15T03:57:51;9.48;;;2.75;;
74634;SDS011;63140;56.306;43.984;2022-11-15T04:00:38;4.30;;;2.30;;
74634;SDS011;63140;56.306;43.984;2022-11-15T04:03:22;6.03;;;2.35;;
74634;SDS011;63140;56.306;43.984;2022-11-15T04:06:07;7.93;;;2.80;;
74634;SDS011;63140;56.306;43.984;2022-11-15T04:08:51;4.15;;;1.88;;
74634;SDS011;63140;56.306;43.984;2022-11-15T04:11:36;5.90;;;2.00;;
74634;SDS011;63140;56.306;43.984;2022-11-15T04:14:20;6.57;;;2.50;;
74634;SDS011;63140;56.306;43.984;2022-11-15T04:17:05;11.13;;;2.35;;
74634;SDS011;63140;56.306;43.984;2022-11-15T04:19:49;6.10;;;2.50;;
74634;SDS011;63140;56.306;43.984;2022-11-15T04:22:53;4.85;;;2.50;;
74634;SDS011;63140;56.306;43.984;2022-11-15T04:26:01;5.18;;;2.25;;
74634;SDS011;63140;56.306;43.984;2022-11-15T04:28:47;11.23;;;2.83;;
74634;SDS011;63140;56.306;43.984;2022-11-15T04:31:50;7.47;;;2.45;;
74634;SDS011;63140;56.306;43.984;2022-11-15T04:34:34;6.00;;;2.22;;
74634;SDS011;63140;56.306;43.984;2022-11-15T04:37:19;6.65;;;2.63;;
74634;SDS011;63140;56.306;43.984;2022-11-15T04:40:03;13.10;;;2.97;;
74634;SDS011;63140;56.306;43.984;2022-11-15T04:42:48;7.00;;;2.83;;
74634;SDS011;63140;56.306;43.984;2022-11-15T04:45:32;10.57;;;2.47;;
74634;SDS011;63140;56.306;43.984;2022-11-15T04:48:17;6.45;;;2.40;;
74634;SDS011;63140;56.306;43.984;2022-11-15T04:51:01;4.95;;;2.30;;
74634;SDS011;63140;56.306;43.984;2022-11-15T04:53:46;9.25;;;2.55;;
74634;SDS011;63140;56.306;43.984;2022-11-15T04:56:30;5.60;;;2.20;;
74634;SDS011;63140;56.306;43.984;2022-11-15T04:59:17;9.57;;;2.15;;
74634;SDS011;63140;56.306;43.984;2022-11-15T05:02:01;12.25;;;3.00;;
74634;SDS011;63140;56.306;43.984;2022-11-15T05:04:46;4.95;;;2.30;;
74634;SDS011;63140;56.306;43.984;2022-11-15T05:07:30;8.80;;;3.10;;
74634;SDS011;63140;56.306;43.984;2022-11-15T05:10:15;11.67;;;3.07;;
74634;SDS011;63140;56.306;43.984;2022-11-15T05:12:59;8.45;;;2.63;;
74634;SDS011;63140;56.306;43.984;2022-11-15T05:15:44;3.72;;;2.00;;
74634;SDS011;63140;56.306;43.984;2022-11-15T05:18:28;9.30;;;2.33;;
74634;SDS011;63140;56.306;43.984;2022-11-15T05:21:13;12.25;;;2.55;;
74634;SDS011;63140;56.306;43.984;2022-11-15T05:23:58;5.77;;;2.13;;
74634;SDS011;63140;56.306;43.984;2022-11-15T05:26:43;9.10;;;2.42;;
74634;SDS011;63140;56.306;43.984;2022-11-15T05:29:27;5.55;;;2.40;;
74634;SDS011;63140;56.306;43.984;2022-11-15T05:32:11;8.45;;;2.35;;
74634;SDS011;63140;56.306;43.984;2022-11-15T05:34:56;7.32;;;2.40;;
74634;SDS011;63140;56.306;43.984;2022-11-15T05:37:42;5.60;;;2.50;;
74634;SDS011;63140;56.306;43.984;2022-11-15T05:40:27;9.57;;;2.47;;
74634;SDS011;63140;56.306;43.984;2022-11-15T05:43:13;4.60;;;2.08;;
74634;SDS011;63140;56.306;43.984;2022-11-15T05:45:57;10.95;;;2.10;;
74634;SDS011;63140;56.306;43.984;2022-11-15T05:48:44;5.40;;;2.15;;
74634;SDS011;63140;56.306;43.984;2022-11-15T05:51:32;9.03;;;2.77;;
74634;SDS011;63140;56.306;43.984;2022-11-15T05:54:17;4.70;;;1.90;;
74634;SDS011;63140;56.306;43.984;2022-11-15T05:57:04;10.02;;;2.72;;
74634;SDS011;63140;56.306;43.984;2022-11-15T05:59:49;4.82;;;2.70;;
74634;SDS011;63140;56.306;43.984;2022-11-15T06:02:34;6.57;;;2.10;;
74634;SDS011;63140;56.306;43.984;2022-11-15T06:05:19;9.40;;;2.37;;
74634;SDS011;63140;56.306;43.984;2022-11-15T06:08:03;5.80;;;3.42;;
74634;SDS011;63140;56.306;43.984;2022-11-15T06:10:48;5.18;;;2.17;;
74634;SDS011;63140;56.306;43.984;2022-11-15T06:13:33;7.45;;;2.72;;
74634;SDS011;63140;56.306;43.984;2022-11-15T06:16:18;8.98;;;2.40;;
74634;SDS011;63140;56.306;43.984;2022-11-15T06:19:02;5.03;;;2.53;;
74634;SDS011;63140;56.306;43.984;2022-11-15T06:21:47;8.68;;;2.85;;
74634;SDS011;63140;56.306;43.984;2022-11-15T06:24:31;7.90;;;2.67;;
74634;SDS011;63140;56.306;43.984;2022-11-15T06:27:16;15.32;;;3.88;;
74634;SDS011;63140;56.306;43.984;2022-11-15T06:30:00;7.57;;;2.60;;
74634;SDS011;63140;56.306;43.984;2022-11-15T06:32:44;7.17;;;2.57;;
74634;SDS011;63140;56.306;43.984;2022-11-15T06:35:29;5.07;;;2.55;;
74634;SDS011;63140;56.306;43.984;2022-11-15T06:38:14;14.50;;;3.35;;
74634;SDS011;63140;56.306;43.984;2022-11-15T06:41:05;5.53;;;2.65;;
74634;SDS011;63140;56.306;43.984;2022-11-15T06:43:52;9.40;;;2.90;;
74634;SDS011;63140;56.306;43.984;2022-11-15T06:46:36;6.43;;;2.30;;
74634;SDS011;63140;56.306;43.984;2022-11-15T06:49:21;8.60;;;2.22;;
74634;SDS011;63140;56.306;43.984;2022-11-15T06:52:08;9.98;;;3.75;;
74634;SDS011;63140;56.306;43.984;2022-11-15T06:54:52;9.82;;;2.70;;
74634;SDS011;63140;56.306;43.984;2022-11-15T06:57:43;4.57;;;2.60;;
74634;SDS011;63140;56.306;43.984;2022-11-15T07:00:30;12.40;;;2.80;;
74634;SDS011;63140;56.306;43.984;2022-11-15T07:03:14;9.48;;;2.20;;
74634;SDS011;63140;56.306;43.984;2022-11-15T07:05:59;5.28;;;2.45;;
74634;SDS011;63140;56.306;43.984;2022-11-15T07:08:43;10.82;;;2.53;;
74634;SDS011;63140;56.306;43.984;2022-11-15T07:11:27;7.45;;;2.60;;
74634;SDS011;63140;56.306;43.984;2022-11-15T07:14:12;9.10;;;2.67;;
74634;SDS011;63140;56.306;43.984;2022-11-15T07:16:56;17.25;;;3.70;;
74634;SDS011;63140;56.306;43.984;2022-11-15T07:19:40;5.75;;;2.33;;
74634;SDS011;63140;56.306;43.984;2022-11-15T07:22:24;8.63;;;2.45;;
74634;SDS011;63140;56.306;43.984;2022-11-15T07:25:09;5.97;;;2.80;;
74634;SDS011;63140;56.306;43.984;2022-11-15T07:27:54;14.40;;;3.50;;
74634;SDS011;63140;56.306;43.984;2022-11-15T07:30:42;9.07;;;3.70;;
74634;SDS011;63140;56.306;43.984;2022-11-15T07:33:26;13.60;;;2.78;;
74634;SDS011;63140;56.306;43.984;2022-11-15T07:36:11;7.43;;;2.70;;
74634;SDS011;63140;56.306;43.984;2022-11-15T07:38:55;21.35;;;4.28;;
74634;SDS011;63140;56.306;43.984;2022-11-15T07:41:39;11.93;;;2.73;;
74634;SDS011;63140;56.306;43.984;2022-11-15T07:44:25;19.73;;;3.25;;
74634;SDS011;63140;56.306;43.984;2022-11-15T07:47:09;11.18;;;3.08;;
74634;SDS011;63140;56.306;43.984;2022-11-15T07:49:53;14.02;;;3.65;;
74634;SDS011;63140;56.306;43.984;2022-11-15T07:52:38;15.15;;;3.53;;
74634;SDS011;63140;56.306;43.984;2022-11-15T07:55:23;8.90;;;3.23;;
74634;SDS011;63140;56.306;43.984;2022-11-15T07:58:08;5.40;;;2.60;;
74634;SDS011;63140;56.306;43.984;2022-11-15T08:00:54;9.02;;;2.78;;
74634;SDS011;63140;56.306;43.984;2022-11-15T08:03:38;17.30;;;3.50;;
74634;SDS011;63140;56.306;43.984;2022-11-15T08:06:22;16.08;;;3.22;;
74634;SDS011;63140;56.306;43.984;2022-11-15T08:09:07;7.20;;;3.10;;
74634;SDS011;63140;56.306;43.984;2022-11-15T08:11:51;6.38;;;2.58;;
74634;SDS011;63140;56.306;43.984;2022-11-15T08:14:36;10.40;;;3.00;;
74634;SDS011;63140;56.306;43.984;2022-11-15T08:17:20;6.68;;;2.80;;
74634;SDS011;63140;56.306;43.984;2022-11-15T08:20:05;7.32;;;3.08;;
74634;SDS011;63140;56.306;43.984;2022-11-15T08:22:50;7.63;;;3.53;;
74634;SDS011;63140;56.306;43.984;2022-11-15T08:25:35;12.43;;;3.03;;
74634;SDS011;63140;56.306;43.984;2022-11-15T08:28:19;9.63;;;2.78;;
74634;SDS011;63140;56.306;43.984;2022-11-15T08:31:04;14.88;;;3.75;;
74634;SDS011;63140;56.306;43.984;2022-11-15T08:37:04;8.63;;;2.90;;
74634;SDS011;63140;56.306;43.984;2022-11-15T08:39:53;7.85;;;2.78;;
74634;SDS011;63140;56.306;43.984;2022-11-15T08:42:39;6.28;;;2.55;;
74634;SDS011;63140;56.306;43.984;2022-11-15T08:45:39;6.53;;;2.20;;
74634;SDS011;63140;56.306;43.984;2022-11-15T08:48:29;13.70;;;3.42;;
74634;SDS011;63140;56.306;43.984;2022-11-15T08:51:14;9.10;;;2.70;;
74634;SDS011;63140;56.306;43.984;2022-11-15T08:53:58;7.35;;;2.90;;
74634;SDS011;63140;56.306;43.984;2022-11-15T08:56:42;16.67;;;3.50;;
74634;SDS011;63140;56.306;43.984;2022-11-15T08:59:27;6.10;;;2.88;;
74634;SDS011;63140;56.306;43.984;2022-11-15T09:02:14;7.57;;;2.80;;
74634;SDS011;63140;56.306;43.984;2022-11-15T09:04:58;9.83;;;2.87;;
74634;SDS011;63140;56.306;43.984;2022-11-15T09:07:43;8.63;;;3.05;;
74634;SDS011;63140;56.306;43.984;2022-11-15T09:10:27;8.88;;;3.00;;
74634;SDS011;63140;56.306;43.984;2022-11-15T09:13:13;7.78;;;3.40;;
74634;SDS011;63140;56.306;43.984;2022-11-15T09:15:58;6.13;;;2.88;;
74634;SDS011;63140;56.306;43.984;2022-11-15T09:18:43;21.23;;;4.03;;
74634;SDS011;63140;56.306;43.984;2022-11-15T09:21:28;10.35;;;3.03;;
74634;SDS011;63140;56.306;43.984;2022-11-15T09:24:13;10.35;;;3.38;;
74634;SDS011;63140;56.306;43.984;2022-11-15T09:26:58;12.35;;;3.42;;
74634;SDS011;63140;56.306;43.984;2022-11-15T09:29:42;8.48;;;3.20;;
74634;SDS011;63140;56.306;43.984;2022-11-15T09:32:28;8.37;;;2.87;;
74634;SDS011;63140;56.306;43.984;2022-11-15T09:35:16;10.68;;;3.50;;
74634;SDS011;63140;56.306;43.984;2022-11-15T09:38:02;9.20;;;3.15;;
74634;SDS011;63140;56.306;43.984;2022-11-15T09:40:50;7.80;;;3.00;;
74634;SDS011;63140;56.306;43.984;2022-11-15T09:47:03;5.13;;;2.80;;
74634;SDS011;63140;56.306;43.984;2022-11-15T09:50:17;8.43;;;2.85;;
74634;SDS011;63140;56.306;43.984;2022-11-15T09:52:56;9.80;;;3.42;;
74634;SDS011;63140;56.306;43.984;2022-11-15T09:55:24;14.90;;;4.28;;
74634;SDS011;63140;56.306;43.984;2022-11-15T10:01:12;13.57;;;3.30;;
74634;SDS011;63140;56.306;43.984;2022-11-15T10:03:45;8.18;;;3.78;;
74634;SDS011;63140;56.306;43.984;2022-11-15T10:06:28;16.35;;;4.10;;
74634;SDS011;63140;56.306;43.984;2022-11-15T10:11:32;15.60;;;4.53;;
74634;SDS011;63140;56.306;43.984;2022-11-15T10:14:01;9.80;;;3.53;;
74634;SDS011;63140;56.306;43.984;2022-11-15T10:25:32;13.80;;;4.97;;
74634;SDS011;63140;56.306;43.984;2022-11-15T10:30:56;16.17;;;3.42;;
74634;SDS011;63140;56.306;43.984;2022-11-15T10:33:34;7.65;;;3.25;;
74634;SDS011;63140;56.306;43.984;2022-11-15T10:41:16;15.00;;;3.90;;
74634;SDS011;63140;56.306;43.984;2022-11-15T10:43:43;10.15;;;3.83;;
74634;SDS011;63140;56.306;43.984;2022-11-15T10:46:19;10.88;;;3.65;;
74634;SDS011;63140;56.306;43.984;2022-11-15T10:48:47;15.32;;;3.78;;
74634;SDS011;63140;56.306;43.984;2022-11-15T10:51:20;15.90;;;5.17;;
74634;SDS011;63140;56.306;43.984;2022-11-15T10:53:57;20.70;;;8.43;;
74634;SDS011;63140;56.306;43.984;2022-11-15T10:56:26;21.10;;;9.70;;
74634;SDS011;63140;56.306;43.984;2022-11-15T10:58:56;11.52;;;4.80;;
74634;SDS011;63140;56.306;43.984;2022-11-15T11:01:24;14.85;;;6.85;;
74634;SDS011;63140;56.306;43.984;2022-11-15T11:04:04;31.93;;;8.17;;
74634;SDS011;63140;56.306;43.984;2022-11-15T11:06:53;16.90;;;5.72;;
74634;SDS011;63140;56.306;43.984;2022-11-15T11:11:54;17.17;;;6.53;;
74634;SDS011;63140;56.306;43.984;2022-11-15T11:22:18;11.40;;;4.75;;
74634;SDS011;63140;56.306;43.984;2022-11-15T11:31:18;16.60;;;5.10;;
74634;SDS011;63140;56.306;43.984;2022-11-15T11:34:13;14.20;;;5.53;;
74634;SDS011;63140;56.306;43.984;2022-11-15T11:39:36;23.70;;;5.53;;
74634;SDS011;63140;56.306;43.984;2022-11-15T11:42:43;10.75;;;4.72;;
74634;SDS011;63140;56.306;43.984;2022-11-15T11:45:44;7.67;;;4.00;;
74634;SDS011;63140;56.306;43.984;2022-11-15T11:51:33;17.33;;;4.85;;
74634;SDS011;63140;56.306;43.984;2022-11-15T11:54:05;12.15;;;4.63;;
74634;SDS011;63140;56.306;43.984;2022-11-15T11:56:39;17.48;;;5.85;;
74634;SDS011;63140;56.306;43.984;2022-11-15T12:05:07;14.95;;;5.05;;
74634;SDS011;63140;56.306;43.984;2022-11-15T12:07:39;9.40;;;3.03;;
74634;SDS011;63140;56.306;43.984;2022-11-15T12:15:43;17.75;;;5.15;;
74634;SDS011;63140;56.306;43.984;2022-11-15T12:18:16;12.68;;;4.50;;
74634;SDS011;63140;56.306;43.984;2022-11-15T12:20:49;7.13;;;3.72;;
74634;SDS011;63140;56.306;43.984;2022-11-15T12:23:27;7.82;;;4.20;;
74634;SDS011;63140;56.306;43.984;2022-11-15T12:28:50;11.65;;;4.75;;
74634;SDS011;63140;56.306;43.984;2022-11-15T12:34:12;15.75;;;5.00;;
74634;SDS011;63140;56.306;43.984;2022-11-15T12:36:54;17.80;;;4.55;;
74634;SDS011;63140;56.306;43.984;2022-11-15T12:39:21;24.10;;;4.93;;
74634;SDS011;63140;56.306;43.984;2022-11-15T12:45:23;11.32;;;4.30;;
74634;SDS011;63140;56.306;43.984;2022-11-15T12:47:52;14.43;;;3.63;;
74634;SDS011;63140;56.306;43.984;2022-11-15T12:50:47;14.80;;;4.30;;
74634;SDS011;63140;56.306;43.984;2022-11-15T12:58:47;13.27;;;4.10;;
74634;SDS011;63140;56.306;43.984;2022-11-15T13:06:55;24.02;;;8.18;;
74634;SDS011;63140;56.306;43.984;2022-11-15T13:12:09;13.77;;;3.67;;
74634;SDS011;63140;56.306;43.984;2022-11-15T13:14:59;18.60;;;4.70;;
74634;SDS011;63140;56.306;43.984;2022-11-15T13:17:30;14.27;;;4.57;;
74634;SDS011;63140;56.306;43.984;2022-11-15T13:20:00;18.70;;;4.70;;
74634;SDS011;63140;56.306;43.984;2022-11-15T13:22:39;19.70;;;5.40;;
74634;SDS011;63140;56.306;43.984;2022-11-15T13:25:26;6.93;;;3.28;;
74634;SDS011;63140;56.306;43.984;2022-11-15T13:31:01;11.03;;;4.10;;
74634;SDS011;63140;56.306;43.984;2022-11-15T13:33:39;14.68;;;4.10;;
74634;SDS011;63140;56.306;43.984;2022-11-15T13:36:06;15.80;;;4.40;;
74634;SDS011;63140;56.306;43.984;2022-11-15T13:38:42;15.45;;;4.70;;
74634;SDS011;63140;56.306;43.984;2022-11-15T13:41:17;20.00;;;4.75;;
74634;SDS011;63140;56.306;43.984;2022-11-15T13:43:45;14.77;;;4.63;;
74634;SDS011;63140;56.306;43.984;2022-11-15T13:48:39;17.13;;;4.90;;
74634;SDS011;63140;56.306;43.984;2022-11-15T13:51:12;18.70;;;5.40;;
74634;SDS011;63140;56.306;43.984;2022-11-15T13:53:46;19.58;;;5.10;;
74634;SDS011;63140;56.306;43.984;2022-11-15T13:56:18;22.63;;;4.80;;
74634;SDS011;63140;56.306;43.984;2022-11-15T13:58:46;13.63;;;4.78;;
74634;SDS011;63140;56.306;43.984;2022-11-15T14:01:16;14.93;;;4.30;;
74634;SDS011;63140;56.306;43.984;2022-11-15T14:03:52;12.27;;;3.83;;
74634;SDS011;63140;56.306;43.984;2022-11-15T14:06:22;11.02;;;4.30;;
74634;SDS011;63140;56.306;43.984;2022-11-15T14:11:52;15.80;;;4.85;;
74634;SDS011;63140;56.306;43.984;2022-11-15T14:14:20;16.25;;;4.03;;
74634;SDS011;63140;56.306;43.984;2022-11-15T14:16:58;13.18;;;4.63;;
74634;SDS011;63140;56.306;43.984;2022-11-15T14:30:42;13.40;;;4.82;;
74634;SDS011;63140;56.306;43.984;2022-11-15T14:33:17;10.55;;;4.47;;
74634;SDS011;63140;56.306;43.984;2022-11-15T14:35:53;10.83;;;4.33;;
74634;SDS011;63140;56.306;43.984;2022-11-15T14:38:21;16.98;;;5.25;;
74634;SDS011;63140;56.306;43.984;2022-11-15T14:40:47;12.15;;;4.80;;
74634;SDS011;63140;56.306;43.984;2022-11-15T14:43:13;11.48;;;4.82;;
74634;SDS011;63140;56.306;43.984;2022-11-15T14:45:39;27.45;;;5.18;;
74634;SDS011;63140;56.306;43.984;2022-11-15T14:48:06;10.90;;;4.17;;
74634;SDS011;63140;56.306;43.984;2022-11-15T14:50:32;15.80;;;5.00;;
74634;SDS011;63140;56.306;43.984;2022-11-15T14:53:00;13.43;;;5.30;;
74634;SDS011;63140;56.306;43.984;2022-11-15T14:55:27;13.65;;;4.70;;
74634;SDS011;63140;56.306;43.984;2022-11-15T14:57:56;12.23;;;5.32;;
74634;SDS011;63140;56.306;43.984;2022-11-15T15:00:22;18.27;;;5.17;;
74634;SDS011;63140;56.306;43.984;2022-11-15T15:02:48;15.57;;;5.50;;
74634;SDS011;63140;56.306;43.984;2022-11-15T15:07:55;12.80;;;4.32;;
74634;SDS011;63140;56.306;43.984;2022-11-15T15:10:21;20.07;;;4.93;;
74634;SDS011;63140;56.306;43.984;2022-11-15T15:12:47;9.77;;;4.10;;
74634;SDS011;63140;56.306;43.984;2022-11-15T15:15:18;14.45;;;4.50;;
74634;SDS011;63140;56.306;43.984;2022-11-15T15:17:49;19.30;;;4.70;;
74634;SDS011;63140;56.306;43.984;2022-11-15T15:20:15;14.17;;;4.13;;
74634;SDS011;63140;56.306;43.984;2022-11-15T15:22:42;10.63;;;3.88;;
74634;SDS011;63140;56.306;43.984;2022-11-15T15:25:18;7.05;;;3.53;;
74634;SDS011;63140;56.306;43.984;2022-11-15T15:27:45;10.15;;;4.10;;
74634;SDS011;63140;56.306;43.984;2022-11-15T15:30:11;7.43;;;4.10;;
74634;SDS011;63140;56.306;43.984;2022-11-15T15:32:37;10.43;;;4.15;;
74634;SDS011;63140;56.306;43.984;2022-11-15T15:35:03;9.93;;;4.07;;
74634;SDS011;63140;56.306;43.984;2022-11-15T15:37:30;9.93;;;4.15;;
74634;SDS011;63140;56.306;43.984;2022-11-15T15:39:58;9.38;;;5.03;;
74634;SDS011;63140;56.306;43.984;2022-11-15T15:42:24;8.87;;;4.37;;
74634;SDS011;63140;56.306;43.984;2022-11-15T15:44:50;10.43;;;4.30;;
74634;SDS011;63140;56.306;43.984;2022-11-15T15:47:20;10.43;;;4.40;;
74634;SDS011;63140;56.306;43.984;2022-11-15T15:49:48;9.80;;;4.90;;
74634;SDS011;63140;56.306;43.984;2022-11-15T15:52:15;9.15;;;4.70;;
74634;SDS011;63140;56.306;43.984;2022-11-15T15:54:41;10.53;;;4.70;;
74634;SDS011;63140;56.306;43.984;2022-11-15T15:57:08;13.88;;;4.93;;
74634;SDS011;63140;56.306;43.984;2022-11-15T15:59:36;15.77;;;5.05;;
74634;SDS011;63140;56.306;43.984;2022-11-15T16:02:02;14.90;;;5.28;;
74634;SDS011;63140;56.306;43.984;2022-11-15T16:04:28;12.87;;;5.13;;
74634;SDS011;63140;56.306;43.984;2022-11-15T16:06:58;19.15;;;7.10;;
74634;SDS011;63140;56.306;43.984;2022-11-15T16:09:25;16.92;;;5.90;;
74634;SDS011;63140;56.306;43.984;2022-11-15T16:12:10;11.90;;;5.55;;
74634;SDS011;63140;56.306;43.984;2022-11-15T16:14:36;21.17;;;5.33;;
74634;SDS011;63140;56.306;43.984;2022-11-15T16:17:02;40.15;;;6.53;;
74634;SDS011;63140;56.306;43.984;2022-11-15T16:19:28;19.60;;;6.70;;
74634;SDS011;63140;56.306;43.984;2022-11-15T16:21:54;18.85;;;4.97;;
74634;SDS011;63140;56.306;43.984;2022-11-15T16:24:20;13.02;;;5.57;;
74634;SDS011;63140;56.306;43.984;2022-11-15T16:26:47;19.67;;;5.40;;
74634;SDS011;63140;56.306;43.984;2022-11-15T16:29:13;13.00;;;4.50;;
74634;SDS011;63140;56.306;43.984;2022-11-15T16:31:39;15.93;;;5.47;;
74634;SDS011;63140;56.306;43.984;2022-11-15T16:34:05;29.23;;;5.30;;
74634;SDS011;63140;56.306;43.984;2022-11-15T16:36:34;13.70;;;4.63;;
74634;SDS011;63140;56.306;43.984;2022-11-15T16:39:01;12.52;;;4.30;;
74634;SDS011;63140;56.306;43.984;2022-11-15T16:41:30;25.67;;;4.82;;
74634;SDS011;63140;56.306;43.984;2022-11-15T16:43:56;14.85;;;4.03;;
74634;SDS011;63140;56.306;43.984;2022-11-15T16:46:23;15.43;;;4.40;;
74634;SDS011;63140;56.306;43.984;2022-11-15T16:48:51;11.02;;;3.92;;
74634;SDS011;63140;56.306;43.984;2022-11-15T16:51:18;19.30;;;4.55;;
74634;SDS011;63140;56.306;43.984;2022-11-15T16:53:44;22.67;;;5.22;;
74634;SDS011;63140;56.306;43.984;2022-11-15T16:58:53;8.20;;;3.73;;
74634;SDS011;63140;56.306;43.984;2022-11-15T17:01:41;11.55;;;3.88;;
74634;SDS011;63140;56.306;43.984;2022-11-15T17:04:18;12.65;;;4.80;;
74634;SDS011;63140;56.306;43.984;2022-11-15T17:06:47;11.70;;;4.07;;
74634;SDS011;63140;56.306;43.984;2022-11-15T17:09:17;14.63;;;4.82;;
74634;SDS011;63140;56.306;43.984;2022-11-15T17:11:45;10.27;;;4.50;;
74634;SDS011;63140;56.306;43.984;2022-11-15T17:14:11;17.98;;;4.53;;
74634;SDS011;63140;56.306;43.984;2022-11-15T17:16:38;16.60;;;4.60;;
74634;SDS011;63140;56.306;43.984;2022-11-15T17:19:17;15.20;;;3.90;;
74634;SDS011;63140;56.306;43.984;2022-11-15T17:21:44;14.88;;;4.32;;
74634;SDS011;63140;56.306;43.984;2022-11-15T17:24:10;13.27;;;3.93;;
74634;SDS011;63140;56.306;43.984;2022-11-15T17:26:37;14.43;;;4.28;;
74634;SDS011;63140;56.306;43.984;2022-11-15T17:29:03;11.65;;;4.28;;
74634;SDS011;63140;56.306;43.984;2022-11-15T17:31:35;13.57;;;4.38;;
74634;SDS011;63140;56.306;43.984;2022-11-15T17:34:02;9.45;;;4.03;;
74634;SDS011;63140;56.306;43.984;2022-11-15T17:36:30;10.47;;;4.33;;
74634;SDS011;63140;56.306;43.984;2022-11-15T17:38:56;16.38;;;4.68;;
74634;SDS011;63140;56.306;43.984;2022-11-15T17:41:23;9.23;;;4.53;;
74634;SDS011;63140;56.306;43.984;2022-11-15T17:43:49;13.35;;;4.20;;
74634;SDS011;63140;56.306;43.984;2022-11-15T17:46:17;14.43;;;4.45;;
74634;SDS011;63140;56.306;43.984;2022-11-15T17:48:45;11.53;;;4.20;;
74634;SDS011;63140;56.306;43.984;2022-11-15T17:51:14;11.77;;;3.95;;
74634;SDS011;63140;56.306;43.984;2022-11-15T17:53:42;9.52;;;4.10;;
74634;SDS011;63140;56.306;43.984;2022-11-15T17:56:11;11.95;;;4.22;;
74634;SDS011;63140;56.306;43.984;2022-11-15T17:58:38;13.57;;;4.32;;
74634;SDS011;63140;56.306;43.984;2022-11-15T18:01:09;16.40;;;4.07;;
74634;SDS011;63140;56.306;43.984;2022-11-15T18:03:40;16.98;;;4.47;;
74634;SDS011;63140;56.306;43.984;2022-11-15T18:06:07;9.00;;;3.72;;